Time;durP1;ratioP1;P1;durP2;ratioP2;P2;SDS_P1;SDS_P2;PMS_P1;PMS_P2;Temp;Humidity;BMP_temperature;BMP_pressure;BME280_temperature;BME280_humidity;BME280_pressure;Samples;Min_cycle;Max_cycle;Signal;HPM_P1;HPM_P2
2022/05/29 00:00:57;;;;;;;;;;;;;;;13.01;62.69;99994.69;4904141;29;1937;-95
2022/05/29 00:03:23;;;;;;;;;;;;;;;13.01;62.88;99999.28;4921406;29;1979;-95
2022/05/29 00:05:52;;;;;;;;;;;;;;;13.00;62.70;99998.47;4902762;29;1200;-96
2022/05/29 00:08:19;;;;;;;;;;;;;;;12.99;62.66;99998.69;4902536;29;1279;-95
2022/05/29 00:10:46;;;;;;;;;;;;;;;12.98;62.80;100000.59;4902434;29;1300;-95
2022/05/29 00:13:12;;;;;;;;;;;;;;;12.96;62.54;100002.72;4915722;29;3528;-95
2022/05/29 00:15:39;;;;;;;;;;;;;;;12.95;62.58;100007.31;4920458;29;1609;-95
2022/05/29 00:18:06;;;;;;;;;;;;;;;12.95;62.64;100003.78;4919830;29;1909;-95
2022/05/29 00:20:32;;;;;;;;;;;;;;;12.94;62.58;100011.09;4952040;29;1205;-96
2022/05/29 00:22:59;;;;;;;;;;;;;;;12.92;62.55;100002.41;4921249;29;1252;-95
2022/05/29 00:25:26;;;;;;;;;;;;;;;12.91;62.54;100005.34;4953391;29;1903;-95
2022/05/29 00:27:52;;;;;;;;;;;;;;;12.90;62.62;100007.22;4953211;29;1320;-95
2022/05/29 00:30:19;;;;;;;;;;;;;;;12.89;62.55;100004.78;4952958;29;1201;-95
2022/05/29 00:32:45;;;;;;;;;;;;;;;12.88;62.78;100005.84;4921217;29;1878;-95
2022/05/29 00:35:12;;;;;;;;;;;;;;;12.87;62.57;100013.13;4902162;29;1220;-96
2022/05/29 00:37:39;;;;;;;;;;;;;;;12.85;62.65;100015.28;4902099;29;1223;-95
2022/05/29 00:40:05;;;;;;;;;;;;;;;12.85;62.54;100006.31;4902238;29;1226;-95
2022/05/29 00:42:32;;;;;;;;;;;;;;;12.83;62.65;100008.47;4914308;29;2250;-95
2022/05/29 00:44:58;;;;;;;;;;;;;;;12.83;62.72;100005.78;4928435;29;1915;-96
2022/05/29 00:47:27;;;;;;;;;;;;;;;12.79;62.53;100010.84;4913367;29;1878;-96
2022/05/29 00:49:53;;;;;;;;;;;;;;;12.78;62.38;100011.91;4920809;29;1209;-95
2022/05/29 00:52:23;;;;;;;;;;;;;;;12.77;62.55;100009.47;4952572;29;1217;-95
2022/05/29 00:54:53;;;;;;;;;;;;;;;12.76;62.47;100022.13;4952598;29;1423;-95
2022/05/29 00:57:19;;;;;;;;;;;;;;;12.75;62.44;100012.41;4919233;29;1982;-96
2022/05/29 00:59:46;;;;;;;;;;;;;;;12.73;62.44;100012.66;4938021;29;803;-96
2022/05/29 01:02:12;;;;;;;;;;;;;;;12.71;62.51;100009.38;4912117;29;1913;-96
2022/05/29 01:04:39;;;;;;;;;;;;;;;12.71;62.44;100008.56;4924191;29;1966;-96
2022/05/29 01:07:08;;;;;;;;;;;;;;;12.69;62.44;100008.00;4941751;29;1044;-95
2022/05/29 01:09:34;;;;;;;;;;;;;;;12.69;62.43;100008.00;4924554;29;1208;-96
2022/05/29 01:12:01;;;;;;;;;;;;;;;12.68;62.40;100015.28;4921575;29;3488;-95
2022/05/29 01:14:27;;;;;;;;;;;;;;;12.66;62.42;100012.00;4917131;29;1821;-96
2022/05/29 01:16:56;;;;;;;;;;;;;;;12.65;62.36;100007.69;4923405;29;1926;-96
2022/05/29 01:19:22;;;;;;;;;;;;;;;12.63;62.33;100004.41;4924668;29;1269;-95
2022/05/29 01:21:49;;;;;;;;;;;;;;;12.64;62.43;100002.50;4941452;29;997;-96
2022/05/29 01:24:15;;;;;;;;;;;;;;;12.62;62.38;100013.56;4924328;29;1973;-95
2022/05/29 01:26:42;;;;;;;;;;;;;;;12.61;62.43;100017.31;4924392;29;1167;-96
2022/05/29 01:29:09;;;;;;;;;;;;;;;12.60;62.32;100014.88;4940427;29;1319;-95
2022/05/29 01:31:35;;;;;;;;;;;;;;;12.58;62.35;100015.09;4921055;29;1529;-95
2022/05/29 01:34:02;;;;;;;;;;;;;;;12.57;62.25;100018.88;4939997;29;1430;-95
2022/05/29 01:36:29;;;;;;;;;;;;;;;12.56;62.28;100016.41;4924655;29;1341;-96
2022/05/29 01:38:55;;;;;;;;;;;;;;;12.54;62.17;100022.09;4908738;29;1177;-96
2022/05/29 01:41:22;;;;;;;;;;;;;;;12.53;62.22;100015.06;4922950;29;1889;-96
2022/05/29 01:43:48;;;;;;;;;;;;;;;12.52;62.21;100010.69;4913951;29;1903;-96
2022/05/29 01:46:15;;;;;;;;;;;;;;;12.50;62.25;100019.06;4922854;29;1926;-95
2022/05/29 01:48:41;;;;;;;;;;;;;;;12.49;62.19;100024.69;4923681;29;1369;-95
2022/05/29 01:51:08;;;;;;;;;;;;;;;12.47;62.31;100024.94;4922884;29;1912;-95
2022/05/29 01:53:35;;;;;;;;;;;;;;;12.46;62.33;100022.47;4923384;29;1381;-96
2022/05/29 01:56:01;;;;;;;;;;;;;;;12.45;62.24;100018.16;4910283;29;1961;-95
2022/05/29 01:58:28;;;;;;;;;;;;;;;12.44;62.32;100019.19;4923955;29;1510;-95
2022/05/29 02:00:54;;;;;;;;;;;;;;;12.43;62.23;100026.50;4917393;29;1806;-96
2022/05/29 02:03:21;;;;;;;;;;;;;;;12.41;62.18;100017.84;4921845;29;1724;-96
2022/05/29 02:05:47;;;;;;;;;;;;;;;12.39;62.35;100011.84;4923485;29;1911;-96
2022/05/29 02:08:14;;;;;;;;;;;;;;;12.38;62.43;100014.78;4916156;29;1319;-95
2022/05/29 02:10:41;;;;;;;;;;;;;;;12.39;62.21;100019.13;4926209;29;1251;-96
2022/05/29 02:13:08;;;;;;;;;;;;;;;12.35;62.20;100005.28;4919728;29;2148;-95
2022/05/29 02:15:34;;;;;;;;;;;;;;;12.34;62.22;100006.34;4907005;29;1947;-96
2022/05/29 02:18:02;;;;;;;;;;;;;;;12.33;62.36;100009.31;4920481;29;1528;-96
2022/05/29 02:20:29;;;;;;;;;;;;;;;12.33;62.19;100018.22;4905562;29;1960;-95
2022/05/29 02:22:56;;;;;;;;;;;;;;;12.32;62.14;100013.06;4915464;29;1383;-95
2022/05/29 02:25:22;;;;;;;;;;;;;;;12.31;62.18;100016.81;4923203;29;1899;-95
2022/05/29 02:27:50;;;;;;;;;;;;;;;12.29;62.28;100019.75;4922745;29;1805;-95
2022/05/29 02:30:16;;;;;;;;;;;;;;;12.27;62.13;100021.91;4937341;29;2055;-95
2022/05/29 02:32:43;;;;;;;;;;;;;;;12.27;62.04;100024.59;4903639;29;1893;-95
2022/05/29 02:35:09;;;;;;;;;;;;;;;12.25;62.06;100029.41;4922002;29;2005;-95
2022/05/29 02:37:36;;;;;;;;;;;;;;;12.23;62.24;100029.66;4922624;29;1361;-95
2022/05/29 02:40:02;;;;;;;;;;;;;;;12.22;62.16;100035.31;4920157;29;1210;-95
2022/05/29 02:42:29;;;;;;;;;;;;;;;12.20;62.20;100021.22;4918876;29;1874;-95
2022/05/29 02:44:55;;;;;;;;;;;;;;;12.19;62.05;100028.50;4907211;29;1988;-95
2022/05/29 02:47:22;;;;;;;;;;;;;;;12.18;62.16;100029.56;4933264;29;1874;-95
2022/05/29 02:49:48;;;;;;;;;;;;;;;12.16;62.02;100033.56;4919828;29;1850;-95
2022/05/29 02:52:15;;;;;;;;;;;;;;;12.16;61.99;100030.88;4919472;29;1852;-95
2022/05/29 02:54:42;;;;;;;;;;;;;;;12.14;62.04;100027.59;4927846;29;1398;-95
2022/05/29 02:57:08;;;;;;;;;;;;;;;12.13;62.11;100026.78;4922171;29;1976;-95
2022/05/29 02:59:36;;;;;;;;;;;;;;;12.10;62.10;100024.56;4922650;29;1189;-96
2022/05/29 03:02:02;;;;;;;;;;;;;;;12.10;62.19;100038.06;4910692;29;2038;-96
2022/05/29 03:04:29;;;;;;;;;;;;;;;12.08;62.18;100029.38;4922622;29;1970;-95
2022/05/29 03:06:55;;;;;;;;;;;;;;;12.07;62.13;100021.53;4912725;29;1566;-95
2022/05/29 03:09:24;;;;;;;;;;;;;;;12.07;62.05;100027.75;4933731;29;1797;-95
2022/05/29 03:11:50;;;;;;;;;;;;;;;12.05;62.03;100032.56;4920475;29;772;-96
2022/05/29 03:14:19;;;;;;;;;;;;;;;12.04;62.09;100031.75;4919146;29;1365;-95
2022/05/29 03:16:46;;;;;;;;;;;;;;;12.01;62.02;100034.13;4937049;29;1926;-96
2022/05/29 03:19:12;;;;;;;;;;;;;;;12.00;61.88;100030.59;4920852;29;1711;-95
2022/05/29 03:21:39;;;;;;;;;;;;;;;12.00;61.82;100035.16;4922120;29;2319;-95
2022/05/29 03:24:05;;;;;;;;;;;;;;;11.98;62.00;100032.72;4915142;29;1974;-95
2022/05/29 03:26:32;;;;;;;;;;;;;;;11.98;61.94;100030.03;4911263;29;1688;-95
2022/05/29 03:28:58;;;;;;;;;;;;;;;11.95;62.01;100027.81;4903297;29;1218;-95
2022/05/29 03:31:25;;;;;;;;;;;;;;;11.94;62.00;100028.03;4920141;29;1676;-95
2022/05/29 03:33:52;;;;;;;;;;;;;;;11.92;61.99;100032.88;4921421;29;1730;-96
2022/05/29 03:36:18;;;;;;;;;;;;;;;11.90;61.87;100032.28;4937050;29;2078;-95
2022/05/29 03:38:45;;;;;;;;;;;;;;;11.88;61.95;100029.00;4921526;29;1633;-96
2022/05/29 03:41:11;;;;;;;;;;;;;;;11.86;61.96;100029.25;4926133;29;1995;-96
2022/05/29 03:43:38;;;;;;;;;;;;;;;11.86;61.78;100031.94;4918680;29;2569;-95
2022/05/29 03:46:04;;;;;;;;;;;;;;;11.85;61.75;100026.75;4916581;29;2091;-95
2022/05/29 03:48:32;;;;;;;;;;;;;;;11.84;61.82;100034.03;4911574;29;1759;-95
2022/05/29 03:50:58;;;;;;;;;;;;;;;11.82;61.68;100037.00;4938505;29;1541;-95
2022/05/29 03:53:25;;;;;;;;;;;;;;;11.82;61.99;100030.75;4920611;29;1851;-95
2022/05/29 03:55:51;;;;;;;;;;;;;;;11.80;61.77;100030.19;4921943;29;1297;-95
2022/05/29 03:58:18;;;;;;;;;;;;;;;11.78;61.86;100032.31;4918533;29;1356;-96
2022/05/29 04:00:45;;;;;;;;;;;;;;;11.78;61.61;100032.31;4911820;29;2122;-94
2022/05/29 04:03:12;;;;;;;;;;;;;;;11.77;61.66;100030.66;4938635;29;914;-95
2022/05/29 04:05:38;;;;;;;;;;;;;;;11.76;61.66;100039.81;4902834;29;1919;-95
2022/05/29 04:13:38;;;;;;;;;;;;;;;11.72;61.65;100036.78;4918645;29;2839;-94
2022/05/29 04:16:04;;;;;;;;;;;;;;;11.72;61.82;100038.66;4917207;29;1923;-95
2022/05/29 04:18:31;;;;;;;;;;;;;;;11.70;61.82;100028.09;4921052;29;1271;-95
2022/05/29 04:20:58;;;;;;;;;;;;;;;11.68;61.67;100035.63;4920601;29;1857;-94
2022/05/29 04:23:24;;;;;;;;;;;;;;;11.68;61.59;100026.72;4913861;29;2016;-94
2022/05/29 04:25:51;;;;;;;;;;;;;;;11.67;61.65;100028.56;4904499;29;1986;-95
2022/05/29 04:28:17;;;;;;;;;;;;;;;11.68;61.69;100021.31;4914482;29;1921;-95
2022/05/29 04:30:44;;;;;;;;;;;;;;;11.66;61.46;100024.25;4919564;29;1845;-94
2022/05/29 04:33:10;;;;;;;;;;;;;;;11.64;61.61;100028.25;4920576;29;1865;-94
2022/05/29 04:35:37;;;;;;;;;;;;;;;11.62;61.52;100023.09;4920298;29;2560;-95
2022/05/29 04:38:03;;;;;;;;;;;;;;;11.63;61.66;100029.31;4920737;29;1460;-94
2022/05/29 04:40:31;;;;;;;;;;;;;;;11.60;61.57;100020.63;4916164;29;1917;-95
2022/05/29 04:42:57;;;;;;;;;;;;;;;11.60;61.46;100022.50;4915531;29;1569;-95
2022/05/29 04:45:23;;;;;;;;;;;;;;;11.59;61.58;100026.28;4902289;29;1941;-95
2022/05/29 04:47:50;;;;;;;;;;;;;;;11.58;61.62;100020.03;4937179;29;2263;-95
2022/05/29 04:50:17;;;;;;;;;;;;;;;11.56;61.56;100019.47;4924930;29;1922;-94
2022/05/29 04:52:44;;;;;;;;;;;;;;;11.57;61.59;100023.81;4893867;29;1460;-94
2022/05/29 04:55:10;;;;;;;;;;;;;;;11.55;61.41;100025.91;4901423;29;1739;-94
2022/05/29 04:57:37;;;;;;;;;;;;;;;11.56;61.43;100024.88;4900546;29;1880;-95
2022/05/29 05:00:03;;;;;;;;;;;;;;;11.55;61.37;100023.22;4900622;29;2144;-94
2022/05/29 05:02:30;;;;;;;;;;;;;;;11.53;61.46;100014.56;4902478;29;1746;-95
2022/05/29 05:04:57;;;;;;;;;;;;;;;11.53;61.45;100019.97;4918307;29;1944;-95
2022/05/29 05:07:23;;;;;;;;;;;;;;;11.53;61.45;100011.03;4898521;29;1277;-95
2022/05/29 05:09:50;;;;;;;;;;;;;;;11.53;61.45;100016.41;4915047;29;1614;-95
2022/05/29 05:12:16;;;;;;;;;;;;;;;11.52;61.31;100015.59;4895785;29;2017;-95
2022/05/29 05:14:43;;;;;;;;;;;;;;;11.53;61.25;100011.03;4901017;29;1844;-95
2022/05/29 05:17:09;;;;;;;;;;;;;;;11.52;61.29;100012.09;4900237;29;2162;-95
2022/05/29 05:19:36;;;;;;;;;;;;;;;11.52;61.39;100014.78;4901951;29;1433;-96
2022/05/29 05:22:02;;;;;;;;;;;;;;;11.50;61.29;100008.81;4901014;29;1897;-95
2022/05/29 05:24:29;;;;;;;;;;;;;;;11.49;61.11;100005.28;4902037;29;1587;-95
2022/05/29 05:26:56;;;;;;;;;;;;;;;11.48;61.15;100003.66;4900328;29;1978;-95
2022/05/29 05:29:22;;;;;;;;;;;;;;;11.48;61.13;100010.94;4901512;29;1363;-95
2022/05/29 05:31:49;;;;;;;;;;;;;;;11.48;61.05;100005.53;4907878;29;2112;-95
2022/05/29 05:34:16;;;;;;;;;;;;;;;11.49;61.04;100002.59;4902102;29;1344;-95
2022/05/29 05:36:42;;;;;;;;;;;;;;;11.48;61.15;99998.28;4889601;29;1951;-96
2022/05/29 05:39:09;;;;;;;;;;;;;;;11.48;60.98;100000.16;4899103;29;2045;-94
2022/05/29 05:41:35;;;;;;;;;;;;;;;11.46;61.17;99997.69;4911773;29;1913;-94
2022/05/29 05:44:02;;;;;;;;;;;;;;;11.46;60.87;99989.59;4901788;29;1375;-94
2022/05/29 05:46:28;;;;;;;;;;;;;;;11.47;61.06;99998.50;4890890;29;2445;-94
2022/05/29 05:48:55;;;;;;;;;;;;;;;11.47;60.77;99993.09;4917514;29;1656;-94
2022/05/29 05:51:22;;;;;;;;;;;;;;;11.45;60.97;99990.66;4917490;29;1826;-94
2022/05/29 05:53:48;;;;;;;;;;;;;;;11.45;60.91;99987.97;4921505;29;1800;-94
2022/05/29 05:56:15;;;;;;;;;;;;;;;11.46;60.87;99989.59;4921633;29;1530;-93
2022/05/29 05:58:42;;;;;;;;;;;;;;;11.44;60.93;99983.63;4922739;29;2073;-94
2022/05/29 06:01:09;;;;;;;;;;;;;;;11.44;60.87;99983.63;4937466;29;1992;-93
2022/05/29 06:03:36;;;;;;;;;;;;;;;11.45;60.76;99984.44;4940479;29;858;-93
2022/05/29 06:06:03;;;;;;;;;;;;;;;11.45;60.71;99979.88;4921731;29;1960;-94
2022/05/29 06:08:29;;;;;;;;;;;;;;;11.45;60.70;99987.16;4919187;29;1958;-94
2022/05/29 06:10:56;;;;;;;;;;;;;;;11.44;60.67;99985.50;4923695;29;1269;-94
2022/05/29 06:13:23;;;;;;;;;;;;;;;11.45;60.78;99981.75;4917881;29;2622;-95
2022/05/29 06:15:49;;;;;;;;;;;;;;;11.44;60.45;99980.09;4921380;29;3799;-94
2022/05/29 06:18:16;;;;;;;;;;;;;;;11.44;60.61;99988.19;4922286;29;1965;-94
2022/05/29 06:20:43;;;;;;;;;;;;;;;11.44;60.74;99985.50;4920372;29;1565;-94
2022/05/29 06:23:09;;;;;;;;;;;;;;;11.44;60.60;99982.78;4904258;29;1657;-93
2022/05/29 06:25:36;;;;;;;;;;;;;;;11.43;60.69;99981.16;4922085;29;1987;-93
2022/05/29 06:28:03;;;;;;;;;;;;;;;11.43;60.75;99981.16;4920436;29;1897;-94
2022/05/29 06:30:29;;;;;;;;;;;;;;;11.41;60.68;99980.56;4913272;29;1846;-94
2022/05/29 06:32:57;;;;;;;;;;;;;;;11.41;60.51;99976.00;4923244;29;1208;-94
2022/05/29 06:35:23;;;;;;;;;;;;;;;11.42;60.56;99983.06;4921098;29;1850;-93
2022/05/29 06:37:50;;;;;;;;;;;;;;;11.41;60.68;99978.69;4923286;29;1532;-93
2022/05/29 06:40:16;;;;;;;;;;;;;;;11.41;60.50;99973.31;4921427;29;1926;-93
2022/05/29 06:42:43;;;;;;;;;;;;;;;11.44;60.49;99980.09;4933490;29;2301;-95
2022/05/29 06:45:09;;;;;;;;;;;;;;;11.41;60.60;99981.38;4911706;29;1907;-93
2022/05/29 06:47:36;;;;;;;;;;;;;;;11.41;60.42;99981.38;4921158;29;2152;-94
2022/05/29 06:50:02;;;;;;;;;;;;;;;11.39;60.47;99978.13;4923127;29;1331;-93
2022/05/29 06:52:31;;;;;;;;;;;;;;;11.39;60.45;99978.13;4922643;29;1191;-94
2022/05/29 06:54:57;;;;;;;;;;;;;;;11.40;60.59;99982.47;4925248;29;1535;-94
2022/05/29 06:57:37;;;;;;;;;;;;;;;11.40;60.59;99977.06;4921742;29;1898;-93
2022/05/29 07:08:16;;;;;;;;;;;;;;;11.38;60.54;99979.16;4939443;29;1615;-94
2022/05/29 07:10:42;;;;;;;;;;;;;;;11.39;60.41;99966.53;4920934;29;1869;-94
2022/05/29 07:13:09;;;;;;;;;;;;;;;11.39;60.48;99972.75;4922502;29;1301;-94
2022/05/29 07:15:35;;;;;;;;;;;;;;;11.38;60.40;99973.78;4920507;29;1829;-94
2022/05/29 07:18:02;;;;;;;;;;;;;;;11.37;60.50;99964.88;4921676;29;1466;-93
2022/05/29 07:20:28;;;;;;;;;;;;;;;11.39;60.49;99966.53;4922733;29;1203;-94
2022/05/29 07:22:56;;;;;;;;;;;;;;;11.38;60.38;99973.78;4922352;29;1242;-94
2022/05/29 07:25:22;;;;;;;;;;;;;;;11.39;60.35;99978.13;4938350;29;1903;-93
2022/05/29 07:27:49;;;;;;;;;;;;;;;11.40;60.27;99970.84;4921283;29;1849;-94
2022/05/29 07:30:16;;;;;;;;;;;;;;;11.39;60.52;99970.06;4922183;29;1203;-93
2022/05/29 07:32:42;;;;;;;;;;;;;;;11.39;60.35;99970.06;4919409;29;1981;-94
2022/05/29 07:35:09;;;;;;;;;;;;;;;11.40;60.22;99968.97;4922190;29;1191;-94
2022/05/29 07:37:35;;;;;;;;;;;;;;;11.41;60.36;99967.09;4921878;29;1327;-94
2022/05/29 07:40:02;;;;;;;;;;;;;;;11.42;60.23;99977.66;4937795;29;1276;-94
2022/05/29 07:45:14;;;;;;;;;;;;;;;11.41;60.26;99965.22;4906663;29;1997;-94
2022/05/29 07:47:41;;;;;;;;;;;;;;;11.42;60.26;99960.66;4915927;29;1949;-95
2022/05/29 07:50:07;;;;;;;;;;;;;;;11.42;60.36;99964.19;4922147;29;1174;-94
2022/05/29 07:52:34;;;;;;;;;;;;;;;11.42;60.50;99960.66;4903416;29;1716;-94
2022/05/29 07:55:01;;;;;;;;;;;;;;;11.42;60.32;99960.66;4903023;29;1205;-95
2022/05/29 07:57:27;;;;;;;;;;;;;;;11.43;60.30;99954.19;4918383;29;1826;-94
2022/05/29 07:59:54;;;;;;;;;;;;;;;11.42;60.24;99958.78;4917490;29;1791;-94
2022/05/29 08:02:20;;;;;;;;;;;;;;;11.43;60.37;99955.00;4916142;29;1993;-94
2022/05/29 08:04:47;;;;;;;;;;;;;;;11.44;60.26;99953.13;4919266;29;1221;-95
2022/05/29 08:07:14;;;;;;;;;;;;;;;11.43;60.29;99957.72;4913759;29;1915;-94
2022/05/29 08:09:40;;;;;;;;;;;;;;;11.44;60.20;99945.88;4920619;29;2037;-95
2022/05/29 08:12:07;;;;;;;;;;;;;;;11.46;60.24;99951.03;4904999;29;1781;-95
2022/05/29 08:14:33;;;;;;;;;;;;;;;11.44;60.15;99945.88;4902878;29;1231;-94
2022/05/29 08:17:00;;;;;;;;;;;;;;;11.46;60.09;99948.34;4904780;29;1930;-94
2022/05/29 08:19:26;;;;;;;;;;;;;;;11.48;60.13;99947.03;4937281;29;1916;-94
2022/05/29 08:21:53;;;;;;;;;;;;;;;11.49;59.91;99950.53;4921211;29;1290;-94
2022/05/29 08:32:32;;;;;;;;;;;;;;;11.53;59.90;99930.13;4934287;29;2129;-94
2022/05/29 08:35:00;;;;;;;;;;;;;;;11.53;59.93;99933.66;4920886;29;1310;-94
2022/05/29 08:37:26;;;;;;;;;;;;;;;11.54;59.99;99935.28;4921027;29;1171;-95
2022/05/29 08:39:53;;;;;;;;;;;;;;;11.55;59.86;99934.22;4920280;29;1864;-94
2022/05/29 08:42:20;;;;;;;;;;;;;;;11.56;60.03;99932.38;4911664;29;2314;-95
2022/05/29 08:44:46;;;;;;;;;;;;;;;11.55;60.05;99923.44;4925694;29;1316;-94
2022/05/29 08:47:13;;;;;;;;;;;;;;;11.56;59.85;99933.16;4909519;29;1992;-95
2022/05/29 08:49:39;;;;;;;;;;;;;;;11.57;59.86;99936.69;4920680;29;1530;-94
2022/05/29 08:52:06;;;;;;;;;;;;;;;11.58;59.88;99933.72;4938001;29;1210;-94
2022/05/29 08:54:33;;;;;;;;;;;;;;;11.58;59.93;99919.44;4921392;29;1240;-95
2022/05/29 08:56:59;;;;;;;;;;;;;;;11.58;60.12;99928.34;4918612;29;2136;-94
2022/05/29 08:59:26;;;;;;;;;;;;;;;11.59;60.00;99932.69;4921151;29;1218;-94
2022/05/29 09:01:52;;;;;;;;;;;;;;;11.60;59.93;99925.41;4913077;29;1895;-95
2022/05/29 09:04:19;;;;;;;;;;;;;;;11.60;59.93;99928.91;4902178;29;1420;-94
2022/05/29 09:06:45;;;;;;;;;;;;;;;11.61;59.91;99924.34;4925877;29;1976;-95
2022/05/29 09:09:12;;;;;;;;;;;;;;;11.62;59.99;99917.06;4920800;29;1210;-95
2022/05/29 09:11:38;;;;;;;;;;;;;;;11.61;59.90;99927.03;4918430;29;1526;-94
2022/05/29 09:14:05;;;;;;;;;;;;;;;11.63;60.16;99922.22;4909061;29;2311;-94
2022/05/29 09:16:32;;;;;;;;;;;;;;;11.62;60.22;99922.47;4908487;29;2005;-95
2022/05/29 09:19:00;;;;;;;;;;;;;;;11.64;60.21;99920.34;4919988;29;1874;-95
2022/05/29 09:21:26;;;;;;;;;;;;;;;11.63;60.08;99919.53;4920591;29;1184;-94
2022/05/29 09:23:53;;;;;;;;;;;;;;;11.64;59.99;99917.66;4921638;29;1648;-94
2022/05/29 09:26:19;;;;;;;;;;;;;;;11.65;60.17;99921.97;4924492;29;1981;-94
2022/05/29 09:28:46;;;;;;;;;;;;;;;11.65;60.07;99919.28;4924157;29;1214;-94
2022/05/29 09:31:12;;;;;;;;;;;;;;;11.66;60.25;99915.53;4922537;29;1940;-94
2022/05/29 09:33:39;;;;;;;;;;;;;;;11.67;60.23;99917.16;4924204;29;1270;-95
2022/05/29 09:36:05;;;;;;;;;;;;;;;11.66;60.06;99915.53;4924410;29;1321;-95
2022/05/29 09:38:33;;;;;;;;;;;;;;;11.67;60.04;99914.47;4924419;29;1179;-94
2022/05/29 09:41:01;;;;;;;;;;;;;;;11.68;60.07;99916.13;4919034;29;1839;-95
2022/05/29 09:43:29;;;;;;;;;;;;;;;11.69;60.16;99912.34;4904874;29;1281;-94
2022/05/29 09:45:55;;;;;;;;;;;;;;;11.70;60.01;99905.88;4905728;29;2159;-94
2022/05/29 09:51:06;;;;;;;;;;;;;;;11.71;60.07;99910.25;4939628;29;1366;-94
2022/05/29 09:53:34;;;;;;;;;;;;;;;11.71;60.21;99905.66;4932586;29;2043;-94
2022/05/29 09:56:00;;;;;;;;;;;;;;;11.72;60.12;99903.78;4923960;29;1274;-94
2022/05/29 09:58:27;;;;;;;;;;;;;;;11.73;60.14;99905.41;4924046;29;1183;-94
2022/05/29 10:00:53;;;;;;;;;;;;;;;11.73;60.12;99905.41;4923807;29;1565;-93
2022/05/29 10:03:20;;;;;;;;;;;;;;;11.73;60.26;99905.41;4937929;29;2099;-95
2022/05/29 10:05:46;;;;;;;;;;;;;;;11.75;60.25;99900.59;4905816;29;1914;-95
2022/05/29 10:08:13;;;;;;;;;;;;;;;11.76;60.29;99894.13;4922268;29;1168;-94
2022/05/29 10:10:39;;;;;;;;;;;;;;;11.76;60.06;99900.34;4922886;29;1423;-94
2022/05/29 10:13:06;;;;;;;;;;;;;;;11.76;60.27;99894.13;4923296;29;1845;-93
2022/05/29 10:15:33;;;;;;;;;;;;;;;11.77;60.25;99893.09;4923939;29;1337;-93
2022/05/29 10:18:00;;;;;;;;;;;;;;;11.78;60.27;99897.41;4920612;29;1984;-94
2022/05/29 10:20:27;;;;;;;;;;;;;;;11.79;60.15;99894.47;4922850;29;1624;-94
2022/05/29 10:22:55;;;;;;;;;;;;;;;11.80;60.21;99901.50;4923360;29;1310;-94
2022/05/29 10:25:21;;;;;;;;;;;;;;;11.80;60.25;99895.28;4923630;29;1790;-94
2022/05/29 10:27:48;;;;;;;;;;;;;;;11.83;60.21;99894.81;4923090;29;2045;-93
2022/05/29 10:30:14;;;;;;;;;;;;;;;11.82;60.23;99885.06;4921855;29;1861;-94
2022/05/29 10:32:41;;;;;;;;;;;;;;;11.85;60.20;99889.16;4921295;29;1874;-94
2022/05/29 10:35:08;;;;;;;;;;;;;;;11.85;60.31;99887.28;4940088;29;974;-94
2022/05/29 10:37:34;;;;;;;;;;;;;;;11.86;60.25;99888.94;4923039;29;1317;-94
2022/05/29 10:40:01;;;;;;;;;;;;;;;11.86;60.33;99885.44;4940094;29;1033;-94
2022/05/29 10:42:28;;;;;;;;;;;;;;;11.87;60.29;99879.78;4904626;29;1600;-94
2022/05/29 10:44:55;;;;;;;;;;;;;;;11.87;60.15;99884.38;4903774;29;1923;-93
2022/05/29 10:47:21;;;;;;;;;;;;;;;11.87;60.15;99885.19;4922419;29;2544;-94
2022/05/29 10:49:48;;;;;;;;;;;;;;;11.88;60.05;99889.50;4922900;29;1161;-94
2022/05/29 10:52:14;;;;;;;;;;;;;;;11.90;60.13;99886.56;4922869;29;1375;-94
2022/05/29 10:54:41;;;;;;;;;;;;;;;11.91;60.26;99878.25;4922506;29;1454;-94
2022/05/29 10:57:07;;;;;;;;;;;;;;;11.91;60.20;99885.50;4909071;29;2097;-94
2022/05/29 10:59:34;;;;;;;;;;;;;;;11.92;60.18;99871.78;4904085;29;1298;-94
2022/05/29 11:04:45;;;;;;;;;;;;;;;11.94;60.37;99875.06;4903930;29;1253;-94
2022/05/29 11:07:12;;;;;;;;;;;;;;;11.95;60.38;99871.28;4919854;29;1887;-95
2022/05/29 11:09:39;;;;;;;;;;;;;;;11.97;60.24;99871.03;4953597;29;1179;-94
2022/05/29 11:12:05;;;;;;;;;;;;;;;11.97;60.43;99871.03;4929418;29;1857;-95
2022/05/29 11:14:32;;;;;;;;;;;;;;;11.97;60.37;99863.78;4914040;29;2811;-94
2022/05/29 11:16:58;;;;;;;;;;;;;;;11.98;60.50;99868.09;4929430;29;1893;-94
2022/05/29 11:19:25;;;;;;;;;;;;;;;11.99;60.13;99867.03;4922269;29;1353;-94
2022/05/29 11:21:52;;;;;;;;;;;;;;;11.99;60.30;99869.72;4922584;29;1209;-94
2022/05/29 11:24:19;;;;;;;;;;;;;;;12.01;60.03;99861.41;4938985;29;820;-94
2022/05/29 11:26:45;;;;;;;;;;;;;;;12.01;60.21;99861.41;4922148;29;1891;-94
2022/05/29 11:29:12;;;;;;;;;;;;;;;12.02;60.22;99861.13;4918842;29;1826;-94
2022/05/29 11:31:38;;;;;;;;;;;;;;;12.03;60.25;99860.09;4935901;29;1957;-94
2022/05/29 11:34:05;;;;;;;;;;;;;;;12.04;60.43;99872.50;4922329;29;1088;-94
2022/05/29 11:36:31;;;;;;;;;;;;;;;12.05;60.45;99862.53;4922021;29;1194;-94
2022/05/29 11:38:58;;;;;;;;;;;;;;;12.07;60.50;99865.81;4919821;29;1817;-94
2022/05/29 11:41:25;;;;;;;;;;;;;;;12.08;60.35;99861.22;4909104;29;2065;-94
2022/05/29 11:43:51;;;;;;;;;;;;;;;12.08;60.38;99862.03;4909285;29;2575;-94
2022/05/29 11:51:46;;;;;;;;;;;;;;;12.10;60.60;99857.22;4922058;29;1341;-94
2022/05/29 11:54:13;;;;;;;;;;;;;;;12.11;60.59;99861.53;4922085;29;1191;-94
2022/05/29 11:56:39;;;;;;;;;;;;;;;12.12;60.52;99855.09;4921483;29;1673;-95
2022/05/29 11:59:06;;;;;;;;;;;;;;;12.14;60.38;99860.22;4933151;29;2028;-94
2022/05/29 12:01:32;;;;;;;;;;;;;;;12.14;60.45;99852.13;4912870;29;1322;-94
2022/05/29 12:03:59;;;;;;;;;;;;;;;12.15;60.58;99854.59;4902931;29;1261;-94
2022/05/29 12:06:26;;;;;;;;;;;;;;;12.17;60.71;99854.34;4921185;29;1911;-94
2022/05/29 12:08:52;;;;;;;;;;;;;;;12.17;60.73;99852.44;4919762;29;1859;-94
2022/05/29 12:11:19;;;;;;;;;;;;;;;12.19;60.63;99852.22;4920297;29;2005;-94
2022/05/29 12:13:45;;;;;;;;;;;;;;;12.20;60.69;99851.16;4920471;29;1700;-94
2022/05/29 12:16:12;;;;;;;;;;;;;;;12.21;60.67;99850.91;4920048;29;2291;-94
2022/05/29 12:18:39;;;;;;;;;;;;;;;12.21;60.77;99842.00;4921466;29;1306;-94
2022/05/29 12:21:05;;;;;;;;;;;;;;;12.22;60.71;99849.84;4921468;29;1521;-94
2022/05/29 12:23:32;;;;;;;;;;;;;;;12.23;60.86;99850.66;4920658;29;1941;-94
2022/05/29 12:26:00;;;;;;;;;;;;;;;12.24;60.63;99845.03;4920749;29;1791;-94
2022/05/29 12:28:27;;;;;;;;;;;;;;;12.26;60.78;99844.75;4921395;29;1974;-94
2022/05/29 12:30:53;;;;;;;;;;;;;;;12.25;60.81;99835.84;4911879;29;2045;-94
2022/05/29 12:33:20;;;;;;;;;;;;;;;12.27;60.71;99839.13;4921044;29;1490;-94
2022/05/29 12:35:47;;;;;;;;;;;;;;;12.28;60.76;99834.53;4953287;29;1435;-94
2022/05/29 12:38:13;;;;;;;;;;;;;;;12.30;60.79;99843.22;4909212;29;1560;-94
2022/05/29 12:40:40;;;;;;;;;;;;;;;12.30;60.70;99832.41;4915405;29;1754;-95
2022/05/29 12:43:06;;;;;;;;;;;;;;;12.32;60.89;99826.75;4917509;29;1953;-95
2022/05/29 12:45:33;;;;;;;;;;;;;;;12.32;60.79;99832.16;4918643;29;2096;-94
2022/05/29 12:47:59;;;;;;;;;;;;;;;12.33;60.93;99825.69;4920697;29;1906;-94
2022/05/29 12:50:26;;;;;;;;;;;;;;;12.33;60.92;99823.81;4902908;29;1552;-94
2022/05/29 12:52:53;;;;;;;;;;;;;;;12.35;60.69;99815.44;4936859;29;1299;-94
2022/05/29 12:55:19;;;;;;;;;;;;;;;12.36;60.93;99822.50;4920823;29;1213;-94
2022/05/29 12:57:46;;;;;;;;;;;;;;;12.36;60.68;99819.81;4922339;29;1234;-94
2022/05/29 13:00:12;;;;;;;;;;;;;;;12.36;60.79;99815.22;4919835;29;2137;-94
2022/05/29 13:02:39;;;;;;;;;;;;;;;12.39;60.75;99813.91;4917909;29;1825;-94
2022/05/29 13:05:06;;;;;;;;;;;;;;;12.39;60.89;99814.72;4924841;29;1415;-95
2022/05/29 13:07:32;;;;;;;;;;;;;;;12.40;60.80;99813.63;4925429;29;1914;-94
2022/05/29 13:09:59;;;;;;;;;;;;;;;12.42;60.98;99813.41;4924989;29;1284;-94
2022/05/29 13:12:25;;;;;;;;;;;;;;;12.43;60.91;99807.72;4923853;29;1458;-94
2022/05/29 13:14:52;;;;;;;;;;;;;;;12.43;60.93;99805.03;4910185;29;1867;-94
2022/05/29 13:17:21;;;;;;;;;;;;;;;12.44;60.98;99813.94;4924066;29;1402;-95
2022/05/29 13:19:47;;;;;;;;;;;;;;;12.45;60.84;99800.22;4924717;29;1185;-94
2022/05/29 13:22:14;;;;;;;;;;;;;;;12.46;61.08;99803.72;4924315;29;1184;-94
2022/05/29 13:24:40;;;;;;;;;;;;;;;12.48;60.94;99801.59;4924381;29;1510;-94